Airfield :
LOGIN :

Register | Disclaimer

   EN    FR    IT 

 










Legend :    VFR   Marginal VFR   IFR   Intensive IFR   Very Intensive IFR
Visi :
Ceiling :
>= 8 km
>= 3000ft
5 to 8 km
1000 to 3000 ft
1500m to 5 km
500 to 1000 ft
800 to 1500m
200 to 500 ft
< 800m
< 200 ft
Symbols :   Thunderstorms  Fog  Heavy snow  Heavy precipitations  Wind > 20 kt
SIGMETs :     Misc.  Thunderstorms  Icing  Turbulence  Mountain Waves  Volcanic Ashes







- Airport Elevation : 330 ft
- IATA code : LVA
- Download approach charts


LFOV - Laval-Entrammes

CURRENT METAR :
  • 180500Z AUTO 17005KT 6000 -RA ///TCU 05/05 Q1023

EXPIRED METARs :
  • 180430Z AUTO 18004KT 5000 -RA BR FEW040/// OVC058/// ///TCU 05/05 Q1023
  • 180400Z AUTO 19004KT 5000 RA BR OVC049/// ///TCU 05/04 Q1023
  • 180330Z AUTO 24004KT 200V260 7000 RA SCT035/// OVC048/// ///TCU 05/05 Q1024
  • 180300Z AUTO 24004KT 210V270 8000 -RA ///TCU 05/04 Q1024
  • 180230Z AUTO 23004KT 8000 -RA FEW031/// OVC054/// ///TCU 05/04 Q1024
  • 180200Z AUTO 24004KT 200V260 9999 -RADZ BKN025 OVC032 05/04 Q1024

TAF N/A
No reported NOTAMs for that airfield.



MET'MAP, your aeronautical weather chart ! - Copyright ORBIFLY December 2007 - Disclaimer

ORBIFLY MET'MAP TEAM :

Programming & Development : Alexandra Zaïnal
Concept & Development : Baudouin d'Aumeries
Co-Development & Prog : Marc-Olivier Méhu
Technical & hardware support : Manuel Goepfert

Contact : metmap@orbifly.com




SOURCES & CREDITS :

   NOAA